createdAt,value
2023-05-09T00:01:58.740Z,9.40
2023-05-09T00:04:29.350Z,7.40
2023-05-09T00:06:59.357Z,7.90
2023-05-09T00:09:29.656Z,8.60
2023-05-09T00:11:59.626Z,11.30
2023-05-09T00:14:30.828Z,8.00
2023-05-09T00:17:00.899Z,6.70
2023-05-09T00:19:31.603Z,9.00
2023-05-09T00:22:01.582Z,6.80
2023-05-09T00:24:31.946Z,7.50
2023-05-09T00:27:01.910Z,6.80
2023-05-09T00:29:31.862Z,7.60
2023-05-09T00:32:01.811Z,8.00
2023-05-09T00:34:32.022Z,7.70
2023-05-09T00:37:02.204Z,8.50
2023-05-09T00:39:32.803Z,10.90
2023-05-09T00:42:03.650Z,7.20
2023-05-09T00:44:33.883Z,7.20
2023-05-09T00:47:03.876Z,8.20
2023-05-09T00:49:34.118Z,8.10
2023-05-09T00:52:04.947Z,10.10
2023-05-09T00:54:34.899Z,7.40
2023-05-09T00:57:05.054Z,9.00
2023-05-09T00:59:38.126Z,6.60
2023-05-09T01:02:08.030Z,7.70
2023-05-09T01:04:38.084Z,6.80
2023-05-09T01:07:12.004Z,7.30
2023-05-09T01:09:46.100Z,7.30
2023-05-09T01:12:19.787Z,6.50
2023-05-09T01:14:52.984Z,6.60
2023-05-09T01:17:27.600Z,7.90
2023-05-09T01:20:05.828Z,7.30
2023-05-09T01:22:36.426Z,8.50
2023-05-09T01:25:28.995Z,9.10
2023-05-09T01:28:04.478Z,7.80
2023-05-09T01:30:34.797Z,7.30
2023-05-09T01:33:06.779Z,9.00
2023-05-09T01:35:37.745Z,9.80
2023-05-09T01:38:14.367Z,7.60
2023-05-09T01:40:44.652Z,6.40
2023-05-09T01:43:15.151Z,8.40
2023-05-09T01:45:45.105Z,8.90
2023-05-09T01:48:15.150Z,8.20
2023-05-09T01:50:45.636Z,9.10
2023-05-09T01:53:16.693Z,9.80
2023-05-09T01:55:46.747Z,8.00
2023-05-09T01:58:16.587Z,8.50
2023-05-09T02:00:47.445Z,7.10
2023-05-09T02:03:17.395Z,7.50
2023-05-09T02:05:47.351Z,10.30
2023-05-09T02:08:21.132Z,8.10
2023-05-09T02:10:51.881Z,6.60
2023-05-09T02:13:22.010Z,8.20
2023-05-09T02:15:52.661Z,8.00
2023-05-09T02:18:22.915Z,8.00
2023-05-09T02:20:52.946Z,7.30
2023-05-09T02:23:23.419Z,8.70
2023-05-09T02:25:54.212Z,7.00
2023-05-09T02:28:26.292Z,7.00
2023-05-09T02:30:56.348Z,7.80
2023-05-09T02:33:26.539Z,7.80
2023-05-09T02:35:56.692Z,9.30
2023-05-09T02:38:27.522Z,7.10
2023-05-09T02:40:58.686Z,9.60
2023-05-09T02:43:30.293Z,8.10
2023-05-09T02:46:00.370Z,8.30
2023-05-09T02:48:31.094Z,9.30
2023-05-09T02:51:01.195Z,8.10
2023-05-09T02:53:31.281Z,8.80
2023-05-09T02:56:01.334Z,9.00
2023-05-09T02:58:31.618Z,7.40
2023-05-09T03:01:02.440Z,7.10
2023-05-09T03:03:34.841Z,8.20
2023-05-09T03:06:10.643Z,8.50
2023-05-09T03:08:45.644Z,8.90
2023-05-09T03:11:16.639Z,8.20
2023-05-09T03:13:48.270Z,10.40
2023-05-09T03:16:18.921Z,7.40
2023-05-09T03:18:49.385Z,7.70
2023-05-09T03:21:20.454Z,8.00
2023-05-09T03:23:50.371Z,7.50
2023-05-09T03:26:20.920Z,10.60
2023-05-09T03:28:52.494Z,9.60
2023-05-09T03:31:23.059Z,8.80
2023-05-09T03:33:53.875Z,8.50
2023-05-09T03:36:24.132Z,8.60
2023-05-09T03:38:54.224Z,8.20
2023-05-09T03:41:24.414Z,7.30
2023-05-09T03:43:54.779Z,7.70
2023-05-09T03:46:25.036Z,9.80
2023-05-09T03:48:55.906Z,8.70
2023-05-09T03:51:26.774Z,7.60
2023-05-09T03:53:56.818Z,10.00
2023-05-09T03:56:27.063Z,8.70
2023-05-09T03:58:57.415Z,7.30
2023-05-09T04:01:27.725Z,9.00
2023-05-09T04:03:58.672Z,7.30
2023-05-09T04:06:30.127Z,9.30
2023-05-09T04:09:00.379Z,6.30
2023-05-09T04:11:31.151Z,7.40
2023-05-09T04:14:01.836Z,8.30
2023-05-09T04:16:34.905Z,7.70
2023-05-09T04:19:05.206Z,7.40
2023-05-09T04:21:35.285Z,7.00
2023-05-09T04:24:07.252Z,8.50
2023-05-09T04:26:44.301Z,8.30
2023-05-09T04:29:16.684Z,7.30
2023-05-09T04:31:50.547Z,8.80
2023-05-09T04:34:21.234Z,8.30
2023-05-09T04:36:52.124Z,6.50
2023-05-09T04:39:22.722Z,8.30
2023-05-09T04:41:59.532Z,7.50
2023-05-09T04:44:29.775Z,8.00
2023-05-09T04:46:59.813Z,7.50
2023-05-09T04:49:32.099Z,7.60
2023-05-09T04:52:01.927Z,7.00
2023-05-09T04:54:32.152Z,7.50
2023-05-09T04:57:13.775Z,8.60
2023-05-09T04:59:48.826Z,6.90
2023-05-09T05:02:18.812Z,7.20
2023-05-09T05:04:49.079Z,6.60
2023-05-09T05:07:19.225Z,8.70
2023-05-09T05:09:49.151Z,6.80
2023-05-09T05:12:19.144Z,7.20
2023-05-09T05:14:49.493Z,6.90
2023-05-09T05:17:21.868Z,7.60
2023-05-09T05:19:51.876Z,9.10
2023-05-09T05:22:22.055Z,7.80
2023-05-09T05:24:52.259Z,8.30
2023-05-09T05:27:22.592Z,5.60
2023-05-09T05:29:52.589Z,6.60
2023-05-09T05:32:22.440Z,6.70
2023-05-09T05:34:52.740Z,7.70
2023-05-09T05:37:22.667Z,6.10
2023-05-09T05:39:53.269Z,6.60
2023-05-09T05:42:23.564Z,5.90
2023-05-09T05:44:53.984Z,7.20
2023-05-09T05:47:24.004Z,5.80
2023-05-09T05:49:55.035Z,6.20
2023-05-09T05:52:26.371Z,6.00
2023-05-09T05:54:57.184Z,6.50
2023-05-09T05:57:27.551Z,5.80
2023-05-09T05:59:57.824Z,9.30
2023-05-09T06:02:28.057Z,6.30
2023-05-09T06:04:58.156Z,8.10
2023-05-09T06:07:28.106Z,6.40
2023-05-09T06:09:58.289Z,6.40
2023-05-09T06:12:28.662Z,5.50
2023-05-09T06:14:58.959Z,6.40
2023-05-09T06:17:29.477Z,6.70
2023-05-09T06:19:59.748Z,6.30
2023-05-09T06:22:29.781Z,6.80
2023-05-09T06:24:59.823Z,7.00
2023-05-09T06:27:29.884Z,6.80
2023-05-09T06:30:01.340Z,9.20
2023-05-09T06:32:33.176Z,8.10
2023-05-09T06:35:03.337Z,7.40
2023-05-09T06:37:35.796Z,10.50
2023-05-09T06:40:08.065Z,4.80
2023-05-09T06:42:38.741Z,5.00
2023-05-09T06:45:10.182Z,6.40
2023-05-09T06:47:40.801Z,5.00
2023-05-09T06:50:11.545Z,6.90
2023-05-09T06:52:41.399Z,6.50
2023-05-09T06:55:12.410Z,5.60
2023-05-09T06:57:42.618Z,5.70
2023-05-09T07:00:15.174Z,5.60
2023-05-09T07:02:45.419Z,7.50
2023-05-09T07:05:16.535Z,5.10
2023-05-09T07:07:46.996Z,7.20
2023-05-09T07:10:17.314Z,5.30
2023-05-09T07:12:47.299Z,4.60
2023-05-09T07:15:25.900Z,5.90
2023-05-09T07:18:02.586Z,5.30
2023-05-09T07:20:34.079Z,4.90
2023-05-09T07:23:04.312Z,6.30
2023-05-09T07:25:34.222Z,5.00
2023-05-09T07:28:04.427Z,4.70
2023-05-09T07:30:34.686Z,4.60
2023-05-09T07:33:04.856Z,5.20
2023-05-09T07:35:35.385Z,4.90
2023-05-09T07:38:06.457Z,4.90
2023-05-09T07:40:38.835Z,4.20
2023-05-09T07:43:08.787Z,5.00
2023-05-09T07:45:40.085Z,4.10
2023-05-09T07:48:09.970Z,4.70
2023-05-09T07:50:40.385Z,5.70
2023-05-09T07:53:10.428Z,4.50
2023-05-09T07:55:40.381Z,4.80
2023-05-09T07:58:10.348Z,4.30
2023-05-09T08:00:40.409Z,4.90
2023-05-09T08:03:11.272Z,4.30
2023-05-09T08:05:41.434Z,4.20
2023-05-09T08:08:11.330Z,4.30
2023-05-09T08:10:41.365Z,5.10
2023-05-09T08:13:11.454Z,3.70
2023-05-09T08:15:41.345Z,5.30
2023-05-09T08:18:11.382Z,5.30
2023-05-09T08:20:41.365Z,6.50
2023-05-09T08:23:11.449Z,6.50
2023-05-09T08:25:41.575Z,4.30
2023-05-09T08:28:12.204Z,4.90
2023-05-09T08:30:42.049Z,4.70
2023-05-09T08:33:12.057Z,4.00
2023-05-09T08:35:42.014Z,4.80
2023-05-09T08:38:12.030Z,4.50
2023-05-09T08:40:42.353Z,3.70
2023-05-09T08:43:12.904Z,4.40
2023-05-09T08:45:46.984Z,3.40
2023-05-09T08:48:17.741Z,6.30
2023-05-09T08:50:47.644Z,4.20
2023-05-09T08:53:17.746Z,4.00
2023-05-09T08:55:47.636Z,7.00
2023-05-09T08:58:19.700Z,5.60
2023-05-09T09:00:50.761Z,4.10
2023-05-09T09:03:20.603Z,8.20
2023-05-09T09:05:50.700Z,5.80
2023-05-09T09:08:21.324Z,6.60
2023-05-09T09:10:51.522Z,4.20
2023-05-09T09:13:21.960Z,5.40
2023-05-09T09:15:51.966Z,5.20
2023-05-09T09:18:24.568Z,4.80
2023-05-09T09:20:58.040Z,5.40
2023-05-09T09:23:28.184Z,5.40
2023-05-09T09:26:02.343Z,5.40
2023-05-09T09:28:32.895Z,5.20
2023-05-09T09:31:02.782Z,6.20
2023-05-09T09:33:32.876Z,4.80
2023-05-09T09:36:02.928Z,5.70
2023-05-09T09:38:40.623Z,4.30
2023-05-09T09:41:13.141Z,5.90
2023-05-09T09:43:45.189Z,4.40
2023-05-09T09:46:17.254Z,4.40
2023-05-09T09:48:55.034Z,5.40
2023-05-09T09:51:24.870Z,3.50
2023-05-09T09:53:54.710Z,4.00
2023-05-09T09:56:25.414Z,4.50
2023-05-09T09:59:10.351Z,4.50
2023-05-09T10:01:57.328Z,4.10
2023-05-09T10:04:29.407Z,4.10
2023-05-09T10:07:00.358Z,5.30
2023-05-09T10:09:30.599Z,3.80
2023-05-09T10:12:04.132Z,5.50
2023-05-09T10:14:38.860Z,3.60
2023-05-09T10:17:09.228Z,3.70
2023-05-09T10:19:39.662Z,3.90
2023-05-09T10:22:10.193Z,3.80
2023-05-09T10:24:42.403Z,5.20
2023-05-09T10:27:13.305Z,4.70
2023-05-09T10:29:46.917Z,3.90
2023-05-09T10:32:18.264Z,3.90
2023-05-09T10:34:50.238Z,5.10
2023-05-09T10:37:20.661Z,4.40
2023-05-09T10:39:53.948Z,4.30
2023-05-09T10:42:26.752Z,3.30
2023-05-09T10:44:57.560Z,4.80
2023-05-09T10:47:28.343Z,4.80
2023-05-09T10:49:58.375Z,3.80
2023-05-09T10:52:32.065Z,5.10
2023-05-09T10:55:04.130Z,3.90
2023-05-09T10:57:38.148Z,4.00
2023-05-09T11:00:11.320Z,3.20
2023-05-09T11:02:41.893Z,4.70
2023-05-09T11:05:15.940Z,5.10
2023-05-09T11:07:46.282Z,3.90
2023-05-09T11:10:20.220Z,4.30
2023-05-09T11:12:58.188Z,4.10
2023-05-09T11:15:29.652Z,4.60
2023-05-09T11:18:09.678Z,5.40
2023-05-09T11:20:44.185Z,3.90
2023-05-09T11:23:17.311Z,7.10
2023-05-09T11:25:48.787Z,3.40
2023-05-09T11:28:29.425Z,6.10
2023-05-09T11:31:11.455Z,3.90
2023-05-09T11:33:42.130Z,4.40
2023-05-09T11:36:19.545Z,4.00
2023-05-09T11:38:49.488Z,5.90
2023-05-09T11:41:19.318Z,3.90
2023-05-09T11:43:49.185Z,3.10
2023-05-09T11:46:19.340Z,4.50
2023-05-09T11:48:50.639Z,3.80
2023-05-09T11:51:20.497Z,3.30
2023-05-09T11:53:54.190Z,3.70
2023-05-09T11:56:24.342Z,4.40
2023-05-09T11:58:54.755Z,3.90
2023-05-09T12:01:24.788Z,4.60
2023-05-09T12:03:54.702Z,5.30
2023-05-09T12:06:26.103Z,4.70
2023-05-09T12:08:57.393Z,4.10
2023-05-09T12:11:28.603Z,5.70
2023-05-09T12:14:00.479Z,6.30
2023-05-09T12:16:30.784Z,4.60
2023-05-09T12:19:00.930Z,5.80
2023-05-09T12:21:31.511Z,4.50
2023-05-09T12:24:01.445Z,3.90
2023-05-09T12:26:31.643Z,4.30
2023-05-09T12:29:01.930Z,6.60
2023-05-09T12:37:18.066Z,5.70
2023-05-09T12:41:30.897Z,6.30
2023-05-09T12:44:29.652Z,6.20
2023-05-09T12:47:21.734Z,6.10
2023-05-09T12:49:51.761Z,5.50
2023-05-09T12:52:21.751Z,7.10
2023-05-09T12:54:51.979Z,3.90
2023-05-09T12:57:29.492Z,4.60
2023-05-09T13:00:00.991Z,5.00
2023-05-09T13:02:35.772Z,4.00
2023-05-09T13:05:11.118Z,5.30
2023-05-09T13:07:42.655Z,4.50
2023-05-09T13:10:16.004Z,4.20
2023-05-09T13:12:49.067Z,4.20
2023-05-09T13:15:20.236Z,6.70
2023-05-09T13:17:50.980Z,4.00
2023-05-09T13:20:21.247Z,3.80
2023-05-09T13:22:51.240Z,3.90
2023-05-09T13:25:21.832Z,7.50
2023-05-09T13:27:51.693Z,6.20
2023-05-09T13:30:21.541Z,5.60
2023-05-09T13:32:52.145Z,5.10
2023-05-09T13:35:22.015Z,4.70
2023-05-09T13:37:52.106Z,5.70
2023-05-09T13:40:22.089Z,5.00
2023-05-09T13:42:52.265Z,4.40
2023-05-09T13:45:23.512Z,4.70
2023-05-09T13:47:53.488Z,4.40
2023-05-09T13:50:23.620Z,5.40
2023-05-09T13:52:53.744Z,4.50
2023-05-09T13:55:26.001Z,4.70
2023-05-09T13:57:56.060Z,3.50
2023-05-09T14:00:28.954Z,5.30
2023-05-09T14:02:59.057Z,4.00
2023-05-09T14:05:29.028Z,3.90
2023-05-09T14:07:58.971Z,6.40
2023-05-09T14:10:29.091Z,5.80
2023-05-09T14:12:59.599Z,4.80
2023-05-09T14:15:30.014Z,6.20
2023-05-09T14:17:59.915Z,6.40
2023-05-09T14:20:29.904Z,4.70
2023-05-09T14:23:00.707Z,4.50
2023-05-09T14:25:30.916Z,4.20
2023-05-09T14:28:01.478Z,6.00
2023-05-09T14:30:31.727Z,4.40
2023-05-09T14:33:01.568Z,4.70
2023-05-09T14:35:34.154Z,8.00
2023-05-09T14:38:04.312Z,4.80
2023-05-09T14:40:34.453Z,5.40
2023-05-09T14:43:04.510Z,4.10
2023-05-09T14:45:35.379Z,5.00
2023-05-09T14:48:05.796Z,3.60
2023-05-09T14:50:36.557Z,4.70
2023-05-09T14:53:06.618Z,5.10
2023-05-09T14:55:37.305Z,5.70
2023-05-09T14:58:07.807Z,6.80
2023-05-09T15:00:38.101Z,3.70
2023-05-09T15:03:08.003Z,4.60
2023-05-09T15:05:37.900Z,5.00
2023-05-09T15:08:08.134Z,4.10
2023-05-09T15:10:38.224Z,7.60
2023-05-09T15:13:08.398Z,5.50
2023-05-09T15:15:39.553Z,4.70
2023-05-09T15:18:13.294Z,5.90
2023-05-09T15:20:43.749Z,4.30
2023-05-09T15:23:14.198Z,5.30
2023-05-09T15:25:44.536Z,5.10
2023-05-09T15:28:14.466Z,4.40
2023-05-09T15:30:45.423Z,6.70
2023-05-09T15:33:15.709Z,4.50
2023-05-09T15:35:46.824Z,6.80
2023-05-09T15:38:17.215Z,7.30
2023-05-09T15:40:47.824Z,3.90
2023-05-09T15:43:17.960Z,3.80
2023-05-09T15:45:48.280Z,5.20
2023-05-09T15:48:18.287Z,4.20
2023-05-09T15:50:49.040Z,5.70
2023-05-09T15:53:19.166Z,4.20
2023-05-09T15:55:49.519Z,5.10
2023-05-09T15:58:20.098Z,6.30
2023-05-09T16:00:52.318Z,3.90
2023-05-09T16:03:23.262Z,4.50
2023-05-09T16:05:53.335Z,4.60
2023-05-09T16:08:23.618Z,3.90
2023-05-09T16:10:53.515Z,4.40
2023-05-09T16:13:23.861Z,5.40
2023-05-09T16:15:54.183Z,7.90
2023-05-09T16:18:24.503Z,4.60
2023-05-09T16:20:54.878Z,5.20
2023-05-09T16:23:26.084Z,4.10
2023-05-09T16:25:56.094Z,5.90
2023-05-09T16:28:28.018Z,5.50
2023-05-09T16:30:58.012Z,5.60
2023-05-09T16:33:28.487Z,5.00
2023-05-09T16:35:59.155Z,6.50
2023-05-09T16:38:29.042Z,6.90
2023-05-09T16:40:59.061Z,4.70
2023-05-09T16:43:30.692Z,4.70
2023-05-09T16:46:00.742Z,5.20
2023-05-09T16:48:30.893Z,5.30
2023-05-09T16:51:00.756Z,3.80
2023-05-09T16:53:30.670Z,4.70
2023-05-09T16:56:00.561Z,4.00
2023-05-09T16:58:30.768Z,6.60
2023-05-09T17:01:02.220Z,5.30
2023-05-09T17:03:32.289Z,4.40
2023-05-09T17:06:02.574Z,5.80
2023-05-09T17:08:32.600Z,5.30
2023-05-09T17:11:02.526Z,5.00
2023-05-09T17:13:32.617Z,6.40
2023-05-09T17:16:02.754Z,5.60
2023-05-09T17:18:37.370Z,5.90
2023-05-09T17:21:07.805Z,6.00
2023-05-09T17:23:38.272Z,6.10
2023-05-09T17:26:08.322Z,6.60
2023-05-09T17:28:38.232Z,5.90
2023-05-09T17:31:08.331Z,7.40
2023-05-09T17:33:39.926Z,9.20
2023-05-09T17:36:10.454Z,6.80
2023-05-09T17:38:40.586Z,6.70
2023-05-09T17:41:10.435Z,8.50
2023-05-09T17:43:42.573Z,6.30
2023-05-09T17:46:12.664Z,6.30
2023-05-09T17:48:42.804Z,6.30
2023-05-09T17:51:12.705Z,7.70
2023-05-09T17:53:42.903Z,6.50
2023-05-09T17:56:12.961Z,5.70
2023-05-09T17:58:43.069Z,7.00
2023-05-09T18:01:13.545Z,7.20
2023-05-09T18:03:43.489Z,7.80
2023-05-09T18:06:13.482Z,6.00
2023-05-09T18:08:43.413Z,5.20
2023-05-09T18:11:13.598Z,7.20
2023-05-09T18:13:46.426Z,7.20
2023-05-09T18:16:16.517Z,18.30
2023-05-09T18:18:46.521Z,7.10
2023-05-09T18:21:16.403Z,6.70
2023-05-09T18:23:46.358Z,6.90
2023-05-09T18:26:17.021Z,7.70
2023-05-09T18:28:47.124Z,7.20
2023-05-09T18:31:18.085Z,6.60
2023-05-09T18:33:47.958Z,8.30
2023-05-09T18:36:18.221Z,8.60
2023-05-09T18:42:06.293Z,8.80
2023-05-09T18:44:37.447Z,7.30
2023-05-09T18:47:07.676Z,5.90
2023-05-09T18:49:38.684Z,6.80
2023-05-09T18:52:08.806Z,8.50
2023-05-09T18:54:41.153Z,8.70
2023-05-09T18:57:11.121Z,7.80
2023-05-09T18:59:40.990Z,7.00
2023-05-09T19:02:11.124Z,9.90
2023-05-09T19:04:48.205Z,8.90
2023-05-09T19:07:18.290Z,9.90
2023-05-09T19:09:48.554Z,7.80
2023-05-09T19:12:18.672Z,7.50
2023-05-09T19:14:49.041Z,8.10
2023-05-09T19:17:19.000Z,5.70
2023-05-09T19:19:49.066Z,8.20
2023-05-09T19:22:18.923Z,8.30
2023-05-09T19:24:51.468Z,6.50
2023-05-09T19:27:22.583Z,6.80
2023-05-09T19:40:32.371Z,7.40
2023-05-09T19:43:02.280Z,6.60
2023-05-09T19:45:32.304Z,6.50
2023-05-09T19:48:02.441Z,6.80
2023-05-09T19:50:32.716Z,7.80
2023-05-09T19:53:02.540Z,6.90
2023-05-09T19:55:32.591Z,6.40
2023-05-09T19:58:02.855Z,7.20
2023-05-09T20:00:33.493Z,7.00
2023-05-09T20:03:04.140Z,6.20
2023-05-09T20:05:35.409Z,7.40
2023-05-09T20:08:05.645Z,5.60
2023-05-09T20:10:37.794Z,5.80
2023-05-09T20:13:07.821Z,7.30
2023-05-09T20:15:39.272Z,6.60
2023-05-09T20:18:09.231Z,8.90
2023-05-09T20:20:39.332Z,8.00
2023-05-09T20:23:09.217Z,5.30
2023-05-09T20:25:39.915Z,7.80
2023-05-09T20:28:11.928Z,6.50
2023-05-09T20:30:42.734Z,6.80
2023-05-09T20:33:12.595Z,7.40
2023-05-09T20:35:43.646Z,7.30
2023-05-09T20:38:13.570Z,7.20
2023-05-09T20:40:44.282Z,8.90
2023-05-09T20:43:14.233Z,11.50
2023-05-09T20:45:44.178Z,12.60
2023-05-09T20:48:14.124Z,10.20
2023-05-09T20:50:43.981Z,12.90
2023-05-09T20:53:14.585Z,9.60
2023-05-09T20:55:44.442Z,14.10
2023-05-09T20:58:14.885Z,16.40
2023-05-09T21:00:47.657Z,13.80
2023-05-09T21:03:17.646Z,12.50
2023-05-09T21:05:47.540Z,14.20
2023-05-09T21:08:18.686Z,13.90
2023-05-09T21:10:48.930Z,15.90
2023-05-09T21:13:19.332Z,15.10
2023-05-09T21:15:51.547Z,18.40
2023-05-09T21:18:21.801Z,13.20
2023-05-09T21:20:51.877Z,15.90
2023-05-09T21:23:22.417Z,13.40
2023-05-09T21:25:52.295Z,10.90
2023-05-09T21:28:22.541Z,14.40
2023-05-09T21:30:53.556Z,11.90
2023-05-09T21:33:23.924Z,12.40
2023-05-09T21:35:53.810Z,11.60
2023-05-09T21:38:24.284Z,11.40
2023-05-09T21:40:54.256Z,12.20
2023-05-09T21:43:26.470Z,10.20
2023-05-09T21:45:56.648Z,10.40
2023-05-09T21:48:26.648Z,13.40
2023-05-09T21:50:56.708Z,10.10
2023-05-09T21:53:26.628Z,12.50
2023-05-09T21:55:56.476Z,10.70
2023-05-09T21:58:26.523Z,13.00
2023-05-09T22:00:56.338Z,13.20
2023-05-09T22:03:26.338Z,13.00
2023-05-09T22:05:56.670Z,10.50
2023-05-09T22:08:26.803Z,9.50
2023-05-09T22:10:57.177Z,11.50
2023-05-09T22:13:28.853Z,11.80
2023-05-09T22:15:58.882Z,10.50
2023-05-09T22:18:29.272Z,12.80
2023-05-09T22:20:59.314Z,9.80
2023-05-09T22:23:29.855Z,11.50
2023-05-09T22:25:59.937Z,14.70
2023-05-09T22:28:31.924Z,11.20
2023-05-09T22:31:02.232Z,12.90
2023-05-09T22:33:32.543Z,10.20
2023-05-09T22:36:02.972Z,12.30
2023-05-09T22:38:32.975Z,10.80
2023-05-09T22:41:03.067Z,9.40
2023-05-09T22:43:38.882Z,11.60
2023-05-09T22:46:09.645Z,8.90
2023-05-09T22:48:39.530Z,11.70
2023-05-09T22:51:09.604Z,9.40
2023-05-09T22:53:40.076Z,11.20
2023-05-09T22:56:10.811Z,9.20
2023-05-09T22:58:41.363Z,8.80
2023-05-09T23:01:11.390Z,10.00
2023-05-09T23:03:41.748Z,8.50
2023-05-09T23:06:11.663Z,9.50
2023-05-09T23:08:41.670Z,7.60
2023-05-09T23:11:11.900Z,8.10
2023-05-09T23:13:42.414Z,7.10
2023-05-09T23:16:12.728Z,8.70
2023-05-09T23:18:42.805Z,9.20
2023-05-09T23:21:13.083Z,9.70
2023-05-09T23:23:43.121Z,9.10
2023-05-09T23:26:13.248Z,8.20
2023-05-09T23:28:43.288Z,10.70
2023-05-09T23:31:13.410Z,8.30
2023-05-09T23:33:43.992Z,9.10
2023-05-09T23:36:14.034Z,7.80
2023-05-09T23:38:44.193Z,8.10
2023-05-09T23:41:14.369Z,6.90
2023-05-09T23:43:44.257Z,8.60
2023-05-09T23:46:14.360Z,8.30
2023-05-09T23:48:44.412Z,9.40
2023-05-09T23:51:14.276Z,9.00
2023-05-09T23:53:44.367Z,7.40
2023-05-09T23:56:14.302Z,8.30
2023-05-09T23:58:44.484Z,7.10
